Pagrindinis puslapis
METAR-TAF:

METAR-TAF

Oro uostai :

Čita, Rusija

platuma: 52-05N, ilguma: 113-29E, Aukštis: 685 m

Dabartinis oras

Ataskaita buvo paskelbta 17 minutes, ne 14:30 UTC
Vėjas 6 kt iš Šiaurės
Temperatūra 7°C
Drėgmė 87%
Slėgis 1007 hPa
Matomumas 10 km arba daugiau

METAR: UIAA 291430Z AUTO 35003MPS 9999 ///018/// 07/05 Q1007 RMK MT OBSC QFE697/0929

Laikas: 23:47 (14:47 UTC)

Prognozė

Ataskaita buvo paskelbta 47 minutes, ne 14:00 UTC
Prognozė galioja nuo 29 metu 15 UTC su 30 metu 15 UTC
Vėjas 10 kt iš Šiaurės su gūsio iki 19 kt
Matomumas 10 km arba daugiau
Išsisklaidę debesys ne aukštis 700 ft
Su prošvaistėmis ne aukštis 1800 ft, Liūtiniai kamuoliniai debesys.
lietus
Laikinai
nuo 29 metu 15 UTC su 30 metu 15 UTC
Vėjas 6 kt iš Vakarų/Šiaurės Vakarų su gūsio iki 16 kt
Matomumas: 3100 m
Apsiniaukę ne aukštis 1400 ft, Liūtiniai kamuoliniai debesys.
lietus

TAF: UIAA 291400Z 2915/3015 36005G10MPS 9999 -SHRA SCT007 BKN018CB TEMPO 2915/3015 30003G08MPS 3100 -SHRA OVC014CB

Orai ataskaitas ir orų prognozės (METAR, TAF).

turimą stotys yra geltonos ir raudonos taškus žemėlapyje.

Perkelti pele per norėdami pamatyti stoties vardą.

Tada spustelėkite, norėdami matyti oro stebėjimo ir prognozės.

Norėdami pakeisti žemėlapį: spustelėkite ant žalios mygtukų su juodo kryžiaus žemyn,; žalią mygtuką su brūkšneliu, jei norite nutolinti; arba žalių rodyklių gretimoms žemėlapius.


METAR-TAF: